createdAt,value
2023-01-25T00:04:24.647Z,16.28
2023-01-25T00:09:40.031Z,16.27
2023-01-25T00:14:55.682Z,16.26
2023-01-25T00:20:10.567Z,16.27
2023-01-25T00:25:25.638Z,16.25
2023-01-25T00:30:40.700Z,16.24
2023-01-25T00:35:55.627Z,16.26
2023-01-25T00:41:10.642Z,16.25
2023-01-25T00:46:25.636Z,16.25
2023-01-25T00:51:40.659Z,16.23
2023-01-25T00:56:55.703Z,16.20
2023-01-25T01:02:10.621Z,16.23
2023-01-25T01:07:26.662Z,16.24
2023-01-25T01:12:42.011Z,16.22
2023-01-25T01:17:57.679Z,16.18
2023-01-25T01:23:12.640Z,16.21
2023-01-25T01:28:27.602Z,16.19
2023-01-25T01:33:43.005Z,16.17
2023-01-25T01:38:58.923Z,16.21
2023-01-25T01:44:14.619Z,16.19
2023-01-25T01:49:34.696Z,16.21
2023-01-25T01:54:56.598Z,16.17
2023-01-25T02:00:11.666Z,16.18
2023-01-25T02:05:26.703Z,16.20
2023-01-25T02:10:41.582Z,16.21
2023-01-25T02:15:56.503Z,16.18
2023-01-25T02:21:11.961Z,16.18
2023-01-25T02:26:27.604Z,16.20
2023-01-25T02:31:42.755Z,16.25
2023-01-25T02:36:57.627Z,16.24
2023-01-25T02:42:12.624Z,16.25
2023-01-25T02:47:27.633Z,16.24
2023-01-25T02:52:43.608Z,16.26
2023-01-25T02:57:58.654Z,16.23
2023-01-25T03:03:15.921Z,16.24
2023-01-25T03:08:31.464Z,16.23
2023-01-25T03:13:47.035Z,16.25
2023-01-25T03:19:03.631Z,16.26
2023-01-25T03:24:19.704Z,16.25
2023-01-25T03:29:34.670Z,16.24
2023-01-25T03:34:54.618Z,16.24
2023-01-25T03:40:10.605Z,16.26
2023-01-25T03:45:31.673Z,16.27
2023-01-25T03:50:47.615Z,16.25
2023-01-25T03:56:02.631Z,16.25
2023-01-25T04:01:18.667Z,16.18
2023-01-25T04:06:34.629Z,16.26
2023-01-25T04:11:50.047Z,16.27
2023-01-25T04:17:05.395Z,16.27
2023-01-25T04:22:28.668Z,16.31
2023-01-25T04:27:44.419Z,16.35
2023-01-25T04:32:59.718Z,16.36
2023-01-25T04:38:14.659Z,16.40
2023-01-25T04:43:32.957Z,16.39
2023-01-25T04:48:51.676Z,16.36
2023-01-25T04:54:07.689Z,16.35
2023-01-25T04:59:22.403Z,16.34
2023-01-25T05:04:37.598Z,16.35
2023-01-25T05:09:52.634Z,16.35
2023-01-25T05:15:08.958Z,16.32
2023-01-25T05:20:24.991Z,16.27
2023-01-25T05:25:41.618Z,16.25
2023-01-25T05:31:00.681Z,16.22
2023-01-25T05:36:16.623Z,16.20
2023-01-25T05:41:31.632Z,16.18
2023-01-25T05:46:46.649Z,16.16
2023-01-25T05:52:01.655Z,16.14
2023-01-25T05:57:16.683Z,16.14
2023-01-25T06:02:31.798Z,16.11
2023-01-25T06:07:46.631Z,16.10
2023-01-25T06:13:04.884Z,16.10
2023-01-25T06:18:21.669Z,16.10
2023-01-25T06:24:05.713Z,16.09
2023-01-25T06:29:20.750Z,16.08
2023-01-25T06:34:35.903Z,16.06
2023-01-25T06:39:58.705Z,16.06
2023-01-25T06:45:14.014Z,16.04
2023-01-25T06:50:29.652Z,16.04
2023-01-25T06:55:44.676Z,16.03
2023-01-25T07:00:59.702Z,15.98
2023-01-25T07:06:14.650Z,16.00
2023-01-25T07:11:29.403Z,16.00
2023-01-25T07:16:44.680Z,15.99
2023-01-25T07:21:59.381Z,15.99
2023-01-25T07:27:14.997Z,15.98
2023-01-25T07:32:30.696Z,15.98
2023-01-25T07:37:45.657Z,15.97
2023-01-25T07:43:00.671Z,15.95
2023-01-25T07:48:17.983Z,15.97
2023-01-25T07:53:33.671Z,15.96
2023-01-25T07:58:48.684Z,15.95
2023-01-25T08:04:03.691Z,15.97
2023-01-25T08:09:18.665Z,15.95
2023-01-25T08:14:33.651Z,15.94
2023-01-25T08:19:49.016Z,15.94
2023-01-25T08:25:04.461Z,15.94
2023-01-25T08:30:19.648Z,15.98
2023-01-25T08:35:34.659Z,15.99
2023-01-25T08:40:49.660Z,15.97
2023-01-25T08:46:04.990Z,15.99
2023-01-25T08:51:20.662Z,16.00
2023-01-25T08:56:36.041Z,16.02
2023-01-25T09:01:51.662Z,16.03
2023-01-25T09:07:06.961Z,16.05
2023-01-25T09:12:22.761Z,16.06
2023-01-25T09:17:37.636Z,16.09
2023-01-25T09:22:52.989Z,16.10
2023-01-25T09:28:09.020Z,16.12
2023-01-25T09:33:25.436Z,16.15
2023-01-25T09:38:40.735Z,16.16
2023-01-25T09:43:56.780Z,16.17
2023-01-25T09:49:12.564Z,16.19
2023-01-25T09:54:28.519Z,16.17
2023-01-25T09:59:44.659Z,16.22
2023-01-25T10:04:59.999Z,16.25
2023-01-25T10:10:15.731Z,16.25
2023-01-25T10:15:32.041Z,16.27
2023-01-25T10:20:47.989Z,16.27
2023-01-25T10:26:03.720Z,16.27
2023-01-25T10:31:19.157Z,16.26
2023-01-25T10:36:36.744Z,16.31
2023-01-25T10:41:52.677Z,16.34
2023-01-25T10:47:07.945Z,16.35
2023-01-25T10:52:23.696Z,16.36
2023-01-25T10:57:38.723Z,16.36
2023-01-25T11:02:53.506Z,16.38
2023-01-25T11:08:08.668Z,16.38
2023-01-25T11:13:23.702Z,16.39
2023-01-25T11:18:38.718Z,16.40
2023-01-25T11:23:53.701Z,16.40
2023-01-25T11:29:08.712Z,16.42
2023-01-25T11:34:23.664Z,16.44
2023-01-25T11:39:38.714Z,16.45
2023-01-25T11:44:53.776Z,16.45
2023-01-25T11:50:09.160Z,16.46
2023-01-25T11:55:24.679Z,16.47
2023-01-25T12:00:39.585Z,16.46
2023-01-25T12:05:54.662Z,16.47
2023-01-25T12:11:09.722Z,16.47
2023-01-25T12:16:24.466Z,16.49
2023-01-25T12:21:40.020Z,16.49
2023-01-25T12:26:55.992Z,16.48
2023-01-25T12:32:11.675Z,16.49
2023-01-25T12:37:26.733Z,16.47
2023-01-25T12:42:41.713Z,16.46
2023-01-25T12:47:56.437Z,16.46
2023-01-25T12:53:11.741Z,16.48
2023-01-25T12:58:37.330Z,16.47
2023-01-25T13:03:52.728Z,16.48
2023-01-25T13:09:07.809Z,16.50
2023-01-25T13:14:22.721Z,16.50
2023-01-25T13:19:38.915Z,16.48
2023-01-25T13:24:54.671Z,16.47
2023-01-25T13:30:10.052Z,16.47
2023-01-25T13:35:26.041Z,16.48
2023-01-25T13:40:41.673Z,16.46
2023-01-25T13:45:56.730Z,16.44
2023-01-25T13:51:12.039Z,16.46
2023-01-25T13:56:27.674Z,16.46
2023-01-25T14:01:42.741Z,16.45
2023-01-25T14:06:58.054Z,16.41
2023-01-25T14:12:13.650Z,16.42
2023-01-25T14:17:28.683Z,16.43
2023-01-25T14:22:43.683Z,16.43
2023-01-25T14:27:59.047Z,16.44
2023-01-25T14:33:14.657Z,16.43
2023-01-25T14:38:29.507Z,16.42
2023-01-25T14:43:44.883Z,16.42
2023-01-25T14:49:00.636Z,16.41
2023-01-25T14:54:15.676Z,16.40
2023-01-25T14:59:30.677Z,16.41
2023-01-25T15:04:45.689Z,16.40
2023-01-25T15:10:00.705Z,16.40
2023-01-25T15:15:15.726Z,16.38
2023-01-25T15:20:30.525Z,16.37
2023-01-25T15:25:45.712Z,16.36
2023-01-25T15:31:00.765Z,16.35
2023-01-25T15:36:15.698Z,16.36
2023-01-25T15:41:30.667Z,16.36
2023-01-25T15:46:45.735Z,16.36
2023-01-25T15:52:00.735Z,16.34
2023-01-25T15:57:15.717Z,16.30
2023-01-25T16:02:31.075Z,16.31
2023-01-25T16:07:46.704Z,16.31
2023-01-25T16:13:01.688Z,16.29
2023-01-25T16:18:16.744Z,16.27
2023-01-25T16:23:31.679Z,16.27
2023-01-25T16:28:46.689Z,16.27
2023-01-25T16:34:02.079Z,16.27
2023-01-25T16:39:16.705Z,16.25
2023-01-25T16:44:31.674Z,16.23
2023-01-25T16:49:46.704Z,16.22
2023-01-25T16:55:01.507Z,16.24
2023-01-25T17:00:16.412Z,16.23
2023-01-25T17:05:34.086Z,16.20
2023-01-25T17:10:49.720Z,16.20
2023-01-25T17:16:04.760Z,16.20
2023-01-25T17:21:19.724Z,16.18
2023-01-25T17:26:35.033Z,16.17
2023-01-25T17:31:51.208Z,16.15
2023-01-25T17:37:06.698Z,16.14
2023-01-25T17:42:22.068Z,16.11
2023-01-25T17:47:38.213Z,16.09
2023-01-25T17:52:54.089Z,16.09
2023-01-25T17:58:09.731Z,16.13
2023-01-25T18:03:24.777Z,16.15
2023-01-25T18:08:40.067Z,16.14
2023-01-25T18:13:55.759Z,16.14
2023-01-25T18:19:10.695Z,16.16
2023-01-25T18:24:26.475Z,16.15
2023-01-25T18:29:42.027Z,16.14
2023-01-25T18:34:57.680Z,16.14
2023-01-25T18:40:13.691Z,16.13
2023-01-25T18:45:28.694Z,16.12
2023-01-25T18:50:43.735Z,16.12
2023-01-25T18:55:58.699Z,16.12
2023-01-25T19:01:13.679Z,16.12
2023-01-25T19:06:29.115Z,16.12
2023-01-25T19:11:44.440Z,16.11
2023-01-25T19:16:59.711Z,16.11
2023-01-25T19:22:14.491Z,16.12
2023-01-25T19:27:29.728Z,16.11
2023-01-25T19:32:45.023Z,16.12
2023-01-25T19:38:01.054Z,16.11
2023-01-25T19:43:16.743Z,16.11
2023-01-25T19:48:31.478Z,16.12
2023-01-25T19:53:46.779Z,16.10
2023-01-25T19:59:01.777Z,16.07
2023-01-25T20:04:16.491Z,16.08
2023-01-25T20:09:31.748Z,16.08
2023-01-25T20:14:46.890Z,16.07
2023-01-25T20:20:02.091Z,16.07
2023-01-25T20:25:18.079Z,16.07
2023-01-25T20:30:33.702Z,16.09
2023-01-25T20:35:48.762Z,16.14
2023-01-25T20:41:04.174Z,16.15
2023-01-25T20:46:20.138Z,16.17
2023-01-25T20:51:35.742Z,16.18
2023-01-25T20:56:51.038Z,16.19
2023-01-25T21:02:06.815Z,16.22
2023-01-25T21:07:22.096Z,16.26
2023-01-25T21:12:38.078Z,16.26
2023-01-25T21:17:53.499Z,16.28
2023-01-25T21:23:08.745Z,16.28
2023-01-25T21:28:24.022Z,16.31
2023-01-25T21:33:40.006Z,16.33
2023-01-25T21:38:56.015Z,16.34
2023-01-25T21:44:11.739Z,16.34
2023-01-25T21:49:27.071Z,16.38
2023-01-25T21:54:42.705Z,16.39
2023-01-25T21:59:57.714Z,16.41
2023-01-25T22:05:12.743Z,16.41
2023-01-25T22:10:28.024Z,16.40
2023-01-25T22:15:44.033Z,16.40
2023-01-25T22:20:59.736Z,16.40
2023-01-25T22:26:15.025Z,16.40
2023-01-25T22:31:30.771Z,16.41
2023-01-25T22:36:45.790Z,16.40
2023-01-25T22:42:00.770Z,16.40
2023-01-25T22:47:15.695Z,16.40
2023-01-25T22:52:30.756Z,16.39
2023-01-25T22:57:45.750Z,16.40
2023-01-25T23:03:00.707Z,16.45
2023-01-25T23:08:16.092Z,16.46
2023-01-25T23:13:31.511Z,16.47
2023-01-25T23:18:46.759Z,16.47
2023-01-25T23:24:01.824Z,16.48
2023-01-25T23:29:17.016Z,16.47
2023-01-25T23:34:32.738Z,16.46
2023-01-25T23:39:47.729Z,16.43
2023-01-25T23:45:02.686Z,16.40
2023-01-25T23:50:17.721Z,16.37
2023-01-25T23:55:33.048Z,16.36
